createdAt,value
2018-10-09T00:02:15.964Z,9.73
2018-10-09T00:04:45.552Z,9.73
2018-10-09T00:07:14.756Z,9.75
2018-10-09T00:09:44.117Z,9.77
2018-10-09T00:12:13.139Z,9.78
2018-10-09T00:14:42.468Z,9.80
2018-10-09T00:17:12.052Z,9.76
2018-10-09T00:19:41.650Z,9.74
2018-10-09T00:22:11.090Z,9.67
2018-10-09T00:24:40.413Z,9.60
2018-10-09T00:27:11.981Z,9.55
2018-10-09T00:29:43.580Z,9.48
2018-10-09T00:32:13.241Z,9.40
2018-10-09T00:34:42.750Z,9.36
2018-10-09T00:37:12.103Z,9.34
2018-10-09T00:39:41.404Z,9.29
2018-10-09T00:42:10.620Z,9.28
2018-10-09T00:44:40.021Z,9.27
2018-10-09T00:47:09.296Z,9.26
2018-10-09T00:49:38.954Z,9.21
2018-10-09T00:52:07.681Z,9.18
2018-10-09T00:54:37.301Z,9.13
2018-10-09T00:57:06.562Z,9.11
2018-10-09T00:59:35.980Z,9.05
2018-10-09T01:02:04.928Z,9.04
2018-10-09T01:04:34.175Z,9.00
2018-10-09T01:07:03.431Z,8.98
2018-10-09T01:09:34.061Z,8.94
2018-10-09T01:12:03.044Z,8.87
2018-10-09T01:14:32.345Z,8.81
2018-10-09T01:17:01.652Z,8.76
2018-10-09T01:19:30.891Z,8.72
2018-10-09T01:21:59.857Z,8.71
2018-10-09T01:24:29.468Z,8.69
2018-10-09T01:26:58.717Z,8.64
2018-10-09T01:29:28.136Z,8.63
2018-10-09T01:31:57.431Z,8.62
2018-10-09T01:34:26.772Z,8.58
2018-10-09T01:36:56.297Z,8.55
2018-10-09T01:39:25.629Z,8.52
2018-10-09T01:41:54.868Z,8.50
2018-10-09T01:44:23.958Z,8.47
2018-10-09T01:46:52.967Z,8.46
2018-10-09T01:49:22.411Z,8.43
2018-10-09T01:51:51.079Z,8.40
2018-10-09T01:54:20.366Z,8.38
2018-10-09T01:56:49.308Z,8.36
2018-10-09T01:59:18.624Z,8.35
2018-10-09T02:01:47.910Z,8.32
2018-10-09T02:04:17.344Z,8.29
2018-10-09T02:06:46.657Z,8.26
2018-10-09T02:09:16.286Z,8.23
2018-10-09T02:11:45.760Z,8.20
2018-10-09T02:14:14.923Z,8.19
2018-10-09T02:16:44.167Z,8.18
2018-10-09T02:19:13.465Z,8.15
2018-10-09T02:21:42.487Z,8.13
2018-10-09T02:24:11.756Z,8.12
2018-10-09T02:26:40.992Z,8.12
2018-10-09T02:29:10.297Z,8.12
2018-10-09T02:31:39.554Z,8.10
2018-10-09T02:34:08.838Z,8.08
2018-10-09T02:36:38.399Z,8.07
2018-10-09T02:39:07.150Z,8.06
2018-10-09T02:41:36.205Z,8.04
2018-10-09T02:44:05.497Z,8.04
2018-10-09T02:46:34.489Z,8.05
2018-10-09T02:49:03.753Z,8.07
2018-10-09T02:51:34.389Z,8.10
2018-10-09T02:54:05.424Z,8.15
2018-10-09T02:56:34.828Z,8.18
2018-10-09T02:59:04.377Z,8.19
2018-10-09T03:01:34.404Z,8.20
2018-10-09T03:04:03.713Z,8.21
2018-10-09T03:06:34.368Z,8.23
2018-10-09T03:09:03.173Z,8.23
2018-10-09T03:11:32.466Z,8.20
2018-10-09T03:14:01.750Z,8.21
2018-10-09T03:16:31.076Z,8.24
2018-10-09T03:19:00.157Z,8.26
2018-10-09T03:21:29.457Z,8.26
2018-10-09T03:23:58.727Z,8.24
2018-10-09T03:26:28.158Z,8.18
2018-10-09T03:28:57.623Z,8.19
2018-10-09T03:31:26.761Z,8.19
2018-10-09T03:33:56.075Z,8.20
2018-10-09T03:36:25.558Z,8.19
2018-10-09T03:38:54.512Z,8.19
2018-10-09T03:41:23.469Z,8.18
2018-10-09T03:43:52.746Z,8.15
2018-10-09T03:46:22.087Z,8.16
2018-10-09T03:48:51.626Z,8.13
2018-10-09T03:51:30.201Z,8.13
2018-10-09T03:53:59.568Z,8.12
2018-10-09T03:56:28.571Z,8.10
2018-10-09T03:58:57.886Z,8.09
2018-10-09T04:01:27.494Z,8.08
2018-10-09T04:03:56.789Z,8.08
2018-10-09T04:06:26.403Z,8.06
2018-10-09T04:08:55.717Z,8.05
2018-10-09T04:11:25.510Z,8.06
2018-10-09T04:13:54.818Z,8.06
2018-10-09T04:16:23.852Z,8.05
2018-10-09T04:18:53.165Z,8.04
2018-10-09T04:21:22.206Z,8.00
2018-10-09T04:23:51.609Z,7.98
2018-10-09T04:26:21.090Z,7.97
2018-10-09T04:28:51.652Z,7.95
2018-10-09T04:31:20.919Z,7.97
2018-10-09T04:33:50.504Z,7.98
2018-10-09T04:36:19.802Z,8.01
2018-10-09T04:38:49.101Z,8.02
2018-10-09T04:41:18.589Z,8.03
2018-10-09T04:43:48.169Z,8.02
2018-10-09T04:46:17.471Z,8.02
2018-10-09T04:48:46.692Z,8.00
2018-10-09T04:51:15.733Z,7.96
2018-10-09T04:53:44.813Z,7.91
2018-10-09T04:56:14.091Z,7.88
2018-10-09T04:58:43.681Z,7.84
2018-10-09T05:01:13.895Z,7.81
2018-10-09T05:03:43.205Z,7.79
2018-10-09T05:06:12.712Z,7.76
2018-10-09T05:08:42.006Z,7.77
2018-10-09T05:11:11.292Z,7.77
2018-10-09T05:13:40.757Z,7.76
2018-10-09T05:16:10.207Z,7.77
2018-10-09T05:18:39.801Z,7.79
2018-10-09T05:21:08.737Z,7.81
2018-10-09T05:23:38.036Z,7.82
2018-10-09T05:26:07.032Z,7.84
2018-10-09T05:28:36.316Z,7.85
2018-10-09T05:31:05.494Z,7.86
2018-10-09T05:33:35.242Z,7.87
2018-10-09T05:36:04.409Z,7.86
2018-10-09T05:38:34.692Z,7.85
2018-10-09T05:41:03.655Z,7.88
2018-10-09T05:43:32.948Z,7.87
2018-10-09T05:46:02.249Z,7.88
2018-10-09T05:48:31.824Z,7.88
2018-10-09T05:51:01.103Z,7.87
2018-10-09T05:53:30.921Z,7.87
2018-10-09T05:56:00.188Z,7.87
2018-10-09T05:58:29.878Z,7.85
2018-10-09T06:00:58.944Z,7.86
2018-10-09T06:03:28.221Z,7.88
2018-10-09T06:05:57.795Z,7.89
2018-10-09T06:08:27.221Z,7.91
2018-10-09T06:10:56.809Z,7.92
2018-10-09T06:13:26.087Z,7.93
2018-10-09T06:15:55.392Z,7.94
2018-10-09T06:18:24.872Z,7.94
2018-10-09T06:20:54.173Z,7.96
2018-10-09T06:23:23.800Z,7.97
2018-10-09T06:25:52.752Z,7.98
2018-10-09T06:28:22.092Z,8.01
2018-10-09T06:30:51.812Z,8.07
2018-10-09T06:33:21.093Z,8.14
2018-10-09T06:35:50.043Z,8.22
2018-10-09T06:38:19.311Z,8.29
2018-10-09T06:40:48.874Z,8.36
2018-10-09T06:43:18.147Z,8.47
2018-10-09T06:45:47.432Z,8.55
2018-10-09T06:48:16.918Z,8.62
2018-10-09T06:50:46.496Z,8.70
2018-10-09T06:53:15.866Z,8.78
2018-10-09T06:55:44.805Z,8.86
2018-10-09T06:58:14.098Z,8.94
2018-10-09T07:00:43.147Z,9.01
2018-10-09T07:03:12.431Z,9.09
2018-10-09T07:05:42.027Z,9.18
2018-10-09T07:08:11.510Z,9.29
2018-10-09T07:10:41.097Z,9.38
2018-10-09T07:13:10.369Z,9.44
2018-10-09T07:15:39.982Z,9.48
2018-10-09T07:18:09.253Z,9.50
2018-10-09T07:20:38.832Z,9.59
2018-10-09T07:23:07.777Z,9.76
2018-10-09T07:25:37.196Z,9.96
2018-10-09T07:28:05.919Z,10.18
2018-10-09T07:30:35.486Z,10.43
2018-10-09T07:33:04.778Z,10.69
2018-10-09T07:35:35.150Z,10.90
2018-10-09T07:38:03.821Z,11.08
2018-10-09T07:40:33.173Z,11.27
2018-10-09T07:43:02.468Z,11.52
2018-10-09T07:45:32.129Z,11.80
2018-10-09T07:48:01.434Z,12.07
2018-10-09T07:50:31.174Z,12.32
2018-10-09T07:53:00.517Z,12.57
2018-10-09T07:55:30.200Z,12.79
2018-10-09T07:57:59.505Z,12.94
2018-10-09T08:00:29.049Z,13.05
2018-10-09T08:02:58.358Z,13.28
2018-10-09T08:05:27.458Z,13.43
2018-10-09T08:07:57.038Z,13.37
2018-10-09T08:10:26.388Z,13.27
2018-10-09T08:12:56.135Z,13.27
2018-10-09T08:15:25.409Z,13.41
2018-10-09T08:17:54.984Z,13.66
2018-10-09T08:20:24.269Z,14.02
2018-10-09T08:22:53.636Z,14.41
2018-10-09T08:25:23.162Z,14.71
2018-10-09T08:27:52.511Z,14.90
2018-10-09T08:30:21.796Z,15.09
2018-10-09T08:32:51.381Z,15.26
2018-10-09T08:35:20.669Z,15.45
2018-10-09T08:37:50.265Z,15.61
2018-10-09T08:40:19.615Z,15.81
2018-10-09T08:42:49.063Z,16.07
2018-10-09T08:45:18.120Z,16.39
2018-10-09T08:47:47.073Z,16.61
2018-10-09T08:50:16.359Z,16.82
2018-10-09T08:52:48.656Z,17.01
2018-10-09T08:55:20.473Z,17.16
2018-10-09T08:57:51.300Z,17.34
2018-10-09T09:00:20.604Z,17.57
2018-10-09T09:02:49.624Z,17.90
2018-10-09T09:05:19.205Z,18.31
2018-10-09T09:07:48.773Z,18.60
2018-10-09T09:10:18.295Z,18.69
2018-10-09T09:12:47.585Z,18.79
2018-10-09T09:15:17.187Z,18.96
2018-10-09T09:17:46.717Z,19.08
2018-10-09T09:20:16.245Z,19.25
2018-10-09T09:22:45.192Z,19.29
2018-10-09T09:25:14.240Z,19.41
2018-10-09T09:27:43.687Z,19.64
2018-10-09T09:30:17.165Z,19.94
2018-10-09T09:32:48.309Z,20.16
2018-10-09T09:35:17.591Z,20.17
2018-10-09T09:37:47.444Z,20.23
2018-10-09T09:40:18.627Z,20.55
2018-10-09T09:42:51.357Z,20.66
2018-10-09T09:45:23.352Z,20.71
2018-10-09T09:47:52.313Z,20.66
2018-10-09T09:50:21.600Z,20.55
2018-10-09T09:52:50.888Z,20.53
2018-10-09T09:55:20.421Z,20.63
2018-10-09T09:57:49.796Z,20.56
2018-10-09T10:00:18.737Z,20.65
2018-10-09T10:02:48.580Z,20.96
2018-10-09T10:05:17.856Z,21.33
2018-10-09T10:08:01.478Z,21.56
2018-10-09T10:10:31.396Z,21.78
2018-10-09T10:13:00.693Z,21.94
2018-10-09T10:15:29.976Z,21.88
2018-10-09T10:17:59.381Z,22.05
2018-10-09T10:20:29.520Z,22.27
2018-10-09T10:23:00.261Z,22.54
2018-10-09T10:25:29.549Z,22.79
2018-10-09T10:27:58.855Z,22.83
2018-10-09T10:30:28.473Z,22.86
2018-10-09T10:33:09.730Z,22.90
2018-10-09T10:35:43.502Z,23.06
2018-10-09T10:38:13.497Z,23.35
2018-10-09T10:40:43.259Z,23.60
2018-10-09T10:43:12.575Z,23.73
2018-10-09T10:45:41.853Z,23.57
2018-10-09T10:48:11.149Z,23.40
2018-10-09T10:50:40.716Z,23.25
2018-10-09T10:53:13.967Z,23.24
2018-10-09T10:55:43.817Z,23.32
2018-10-09T10:58:13.117Z,23.45
2018-10-09T11:00:42.688Z,23.42
2018-10-09T11:03:11.710Z,23.38
2018-10-09T11:05:40.829Z,23.37
2018-10-09T11:08:10.472Z,23.46
2018-10-09T11:10:39.940Z,23.48
2018-10-09T11:13:09.566Z,23.62
2018-10-09T11:15:38.854Z,23.78
2018-10-09T11:18:08.120Z,23.95
2018-10-09T11:20:37.850Z,24.00
2018-10-09T11:23:06.592Z,24.11
2018-10-09T11:25:35.899Z,24.14
2018-10-09T11:28:04.940Z,24.09
2018-10-09T11:30:35.581Z,23.97
2018-10-09T11:33:04.884Z,23.97
2018-10-09T11:35:44.211Z,24.14
2018-10-09T11:38:19.620Z,24.27
2018-10-09T11:40:50.616Z,24.23
2018-10-09T11:43:19.909Z,24.15
2018-10-09T11:45:49.165Z,24.22
2018-10-09T11:48:18.597Z,24.51
2018-10-09T11:50:48.529Z,24.82
2018-10-09T11:53:19.677Z,25.08
2018-10-09T11:55:58.839Z,25.27
2018-10-09T11:58:28.685Z,25.48
2018-10-09T12:00:57.941Z,25.64
2018-10-09T12:03:27.368Z,25.70
2018-10-09T12:05:56.353Z,25.79
2018-10-09T12:08:25.642Z,25.70
2018-10-09T12:10:54.921Z,25.52
2018-10-09T12:13:24.226Z,25.30
2018-10-09T12:15:53.525Z,24.93
2018-10-09T12:18:22.621Z,24.73
2018-10-09T12:20:58.196Z,24.72
2018-10-09T12:23:27.632Z,24.70
2018-10-09T12:25:56.583Z,24.74
2018-10-09T12:28:25.873Z,24.90
2018-10-09T12:30:55.154Z,25.13
2018-10-09T12:33:25.793Z,25.29
2018-10-09T12:35:57.983Z,25.22
2018-10-09T12:38:27.326Z,25.17
2018-10-09T12:40:56.794Z,25.29
2018-10-09T12:43:26.081Z,25.35
2018-10-09T12:45:55.406Z,25.49
2018-10-09T12:48:24.781Z,25.51
2018-10-09T12:50:54.149Z,25.52
2018-10-09T12:53:23.548Z,25.12
2018-10-09T12:55:53.044Z,24.76
2018-10-09T12:58:22.021Z,24.66
2018-10-09T13:00:51.471Z,24.62
2018-10-09T13:03:22.453Z,24.73
2018-10-09T13:05:52.069Z,25.05
2018-10-09T13:08:24.113Z,25.17
2018-10-09T13:10:55.668Z,25.25
2018-10-09T13:13:26.620Z,25.26
2018-10-09T13:15:55.905Z,25.21
2018-10-09T13:18:25.193Z,25.35
2018-10-09T13:20:54.474Z,25.52
2018-10-09T13:23:23.917Z,25.59
2018-10-09T13:25:53.509Z,25.57
2018-10-09T13:28:22.851Z,25.45
2018-10-09T13:30:52.180Z,25.36
2018-10-09T13:33:21.841Z,25.22
2018-10-09T13:35:51.140Z,25.12
2018-10-09T13:38:20.533Z,25.13
2018-10-09T13:40:50.240Z,25.14
2018-10-09T13:43:19.576Z,25.24
2018-10-09T13:45:48.802Z,25.25
2018-10-09T13:48:17.521Z,25.09
2018-10-09T13:50:47.140Z,24.99
2018-10-09T13:53:16.549Z,24.91
2018-10-09T13:55:46.160Z,24.84
2018-10-09T13:58:15.437Z,24.92
2018-10-09T14:00:44.628Z,24.96
2018-10-09T14:03:13.940Z,24.98
2018-10-09T14:05:43.236Z,24.86
2018-10-09T14:08:12.813Z,24.80
2018-10-09T14:10:42.113Z,24.84
2018-10-09T14:13:11.405Z,24.91
2018-10-09T14:15:40.969Z,24.95
2018-10-09T14:18:10.260Z,24.88
2018-10-09T14:20:40.164Z,24.83
2018-10-09T14:23:09.511Z,24.83
2018-10-09T14:25:38.705Z,24.69
2018-10-09T14:28:07.722Z,24.42
2018-10-09T14:30:36.758Z,24.36
2018-10-09T14:33:06.077Z,24.43
2018-10-09T14:35:36.349Z,24.45
2018-10-09T14:38:05.759Z,24.27
2018-10-09T14:40:36.014Z,24.18
2018-10-09T14:43:04.953Z,24.35
2018-10-09T14:45:34.250Z,24.53
2018-10-09T14:48:03.527Z,24.71
2018-10-09T14:50:33.028Z,24.78
2018-10-09T14:53:02.327Z,24.70
2018-10-09T14:55:31.628Z,24.66
2018-10-09T14:58:01.108Z,24.54
2018-10-09T15:00:30.421Z,24.33
2018-10-09T15:03:00.029Z,24.13
2018-10-09T15:05:29.477Z,24.00
2018-10-09T15:07:59.034Z,23.80
2018-10-09T15:10:28.330Z,23.57
2018-10-09T15:12:57.617Z,23.37
2018-10-09T15:15:26.879Z,23.43
2018-10-09T15:17:55.962Z,23.63
2018-10-09T15:20:25.129Z,23.69
2018-10-09T15:22:54.418Z,23.69
2018-10-09T15:25:23.721Z,23.70
2018-10-09T15:27:52.792Z,23.81
2018-10-09T15:30:22.293Z,23.89
2018-10-09T15:32:51.568Z,23.95
2018-10-09T15:35:21.191Z,23.96
2018-10-09T15:37:50.590Z,23.98
2018-10-09T15:40:19.885Z,23.91
2018-10-09T15:42:49.436Z,23.80
2018-10-09T15:45:18.741Z,23.74
2018-10-09T15:47:48.322Z,23.70
2018-10-09T15:50:17.624Z,23.64
2018-10-09T15:52:46.992Z,23.59
2018-10-09T15:55:16.416Z,23.55
2018-10-09T15:57:45.713Z,23.54
2018-10-09T16:00:15.398Z,23.36
2018-10-09T16:02:44.693Z,23.16
2018-10-09T16:05:13.473Z,23.03
2018-10-09T16:07:42.803Z,22.90
2018-10-09T16:10:12.438Z,22.77
2018-10-09T16:12:41.394Z,22.66
2018-10-09T16:15:10.667Z,22.56
2018-10-09T16:17:40.256Z,22.49
2018-10-09T16:20:09.309Z,22.40
2018-10-09T16:22:38.606Z,22.29
2018-10-09T16:25:07.554Z,22.18
2018-10-09T16:27:37.097Z,22.10
2018-10-09T16:30:09.040Z,21.98
2018-10-09T16:32:38.417Z,21.87
2018-10-09T16:35:07.307Z,21.72
2018-10-09T16:37:36.708Z,21.55
2018-10-09T16:40:05.433Z,21.42
2018-10-09T16:42:34.733Z,21.33
2018-10-09T16:45:04.122Z,21.23
2018-10-09T16:47:33.197Z,21.14
2018-10-09T16:50:03.653Z,21.01
2018-10-09T16:52:35.101Z,20.96
2018-10-09T16:55:04.098Z,20.88
2018-10-09T16:57:33.484Z,20.81
2018-10-09T17:00:02.770Z,20.68
2018-10-09T17:02:32.400Z,20.50
2018-10-09T17:05:01.688Z,20.27
2018-10-09T17:07:30.981Z,20.10
2018-10-09T17:10:00.466Z,19.97
2018-10-09T17:12:29.768Z,19.82
2018-10-09T17:14:59.348Z,19.68
2018-10-09T17:17:28.655Z,19.53
2018-10-09T17:19:57.666Z,19.40
2018-10-09T17:22:27.235Z,19.25
2018-10-09T17:24:56.681Z,19.13
2018-10-09T17:27:25.987Z,19.02
2018-10-09T17:29:55.480Z,18.91
2018-10-09T17:32:24.826Z,18.78
2018-10-09T17:34:54.452Z,18.70
2018-10-09T17:37:24.912Z,18.70
2018-10-09T17:39:58.589Z,18.69
2018-10-09T17:42:28.933Z,18.68
2018-10-09T17:44:58.451Z,18.63
2018-10-09T17:47:27.416Z,18.53
2018-10-09T17:49:56.700Z,18.45
2018-10-09T17:52:25.989Z,18.39
2018-10-09T17:54:55.605Z,18.31
2018-10-09T17:57:24.893Z,18.23
2018-10-09T17:59:54.477Z,18.13
2018-10-09T18:02:23.794Z,18.01
2018-10-09T18:04:54.444Z,17.88
2018-10-09T18:07:26.430Z,17.79
2018-10-09T18:09:55.645Z,17.74
2018-10-09T18:12:24.930Z,17.70
2018-10-09T18:14:54.539Z,17.61
2018-10-09T18:17:24.021Z,17.50
2018-10-09T18:19:53.597Z,17.41
2018-10-09T18:22:22.902Z,17.31
2018-10-09T18:24:52.498Z,17.23
2018-10-09T18:27:21.743Z,17.17
2018-10-09T18:29:51.049Z,17.11
2018-10-09T18:32:20.629Z,17.07
2018-10-09T18:34:50.156Z,17.03
2018-10-09T18:37:19.781Z,16.97
2018-10-09T18:39:49.249Z,16.95
2018-10-09T18:42:18.681Z,16.92
2018-10-09T18:44:47.858Z,16.85
2018-10-09T18:47:17.015Z,16.78
2018-10-09T18:49:46.281Z,16.73
2018-10-09T18:52:18.250Z,16.66
2018-10-09T18:54:47.869Z,16.62
2018-10-09T18:57:17.186Z,16.55
2018-10-09T18:59:46.750Z,16.47
2018-10-09T19:02:16.054Z,16.37
2018-10-09T19:04:45.763Z,16.23
2018-10-09T19:07:15.262Z,16.12
2018-10-09T19:09:44.871Z,16.02
2018-10-09T19:12:14.225Z,15.95
2018-10-09T19:14:44.023Z,15.78
2018-10-09T19:17:13.360Z,15.79
2018-10-09T19:19:43.065Z,15.67
2018-10-09T19:22:12.710Z,15.60
2018-10-09T19:24:43.666Z,15.51
2018-10-09T19:27:14.291Z,15.41
2018-10-09T19:32:27.209Z,15.19
2018-10-09T19:34:56.927Z,15.12
2018-10-09T19:37:27.200Z,15.05
2018-10-09T19:40:03.122Z,15.00
2018-10-09T20:54:22.278Z,13.46
2018-10-09T20:56:55.039Z,13.40
2018-10-09T20:59:32.841Z,13.37
2018-10-09T21:02:03.130Z,13.36
2018-10-09T21:04:32.429Z,13.38
2018-10-09T21:07:01.994Z,13.37
2018-10-09T21:09:31.513Z,13.36
2018-10-09T21:12:00.801Z,13.35
2018-10-09T21:14:30.127Z,13.34
2018-10-09T21:17:00.603Z,13.31
2018-10-09T21:19:34.052Z,13.25
2018-10-09T21:22:07.069Z,13.20
2018-10-09T21:24:36.586Z,13.14
2018-10-09T21:27:12.511Z,13.07
2018-10-09T21:29:42.698Z,13.01
2018-10-09T21:32:17.739Z,12.96
2018-10-09T22:33:47.748Z,12.03
2018-10-09T22:36:17.202Z,12.02
2018-10-09T22:38:46.854Z,12.00
2018-10-09T22:41:16.037Z,11.96
2018-10-09T22:43:45.955Z,11.93
2018-10-09T22:46:15.145Z,11.87
2018-10-09T22:48:44.600Z,11.80
2018-10-09T22:51:13.625Z,11.74
2018-10-09T22:53:43.057Z,11.68
